地図

経路データ

SID SEASON NUMBER BASIN SUBBASIN NAME ISO_TIME NATURE LAT LON WMO_WIND WMO_PRES WMO_AGENCY TRACK_TYPE DIST2LAND LANDFALL IFLAG USA_AGENCY USA_ATCF_ID USA_LAT USA_LON USA_RECORD USA_STATUS USA_WIND USA_PRES USA_SSHS USA_R34_NE USA_R34_SE USA_R34_SW USA_R34_NW USA_R50_NE USA_R50_SE USA_R50_SW USA_R50_NW USA_R64_NE USA_R64_SE USA_R64_SW USA_R64_NW USA_POCI USA_ROCI USA_RMW USA_EYE TOKYO_LAT TOKYO_LON TOKYO_GRADE TOKYO_WIND TOKYO_PRES TOKYO_R50_DIR TOKYO_R50_LONG TOKYO_R50_SHORT TOKYO_R30_DIR TOKYO_R30_LONG TOKYO_R30_SHORT TOKYO_LAND CMA_LAT CMA_LON CMA_CAT CMA_WIND CMA_PRES HKO_LAT HKO_LON HKO_CAT HKO_WIND HKO_PRES NEWDELHI_LAT NEWDELHI_LON NEWDELHI_GRADE NEWDELHI_WIND NEWDELHI_PRES NEWDELHI_CI NEWDELHI_DP NEWDELHI_POCI REUNION_LAT REUNION_LON REUNION_TYPE REUNION_WIND REUNION_PRES REUNION_TNUM REUNION_CI REUNION_RMW REUNION_R34_NE REUNION_R34_SE REUNION_R34_SW REUNION_R34_NW REUNION_R50_NE REUNION_R50_SE REUNION_R50_SW REUNION_R50_NW REUNION_R64_NE REUNION_R64_SE REUNION_R64_SW REUNION_R64_NW BOM_LAT BOM_LON BOM_TYPE BOM_WIND BOM_PRES BOM_TNUM BOM_CI BOM_RMW BOM_R34_NE BOM_R34_SE BOM_R34_SW BOM_R34_NW BOM_R50_NE BOM_R50_SE BOM_R50_SW BOM_R50_NW BOM_R64_NE BOM_R64_SE BOM_R64_SW BOM_R64_NW BOM_ROCI BOM_POCI BOM_EYE BOM_POS_METHOD BOM_PRES_METHOD NADI_LAT NADI_LON NADI_CAT NADI_WIND NADI_PRES WELLINGTON_LAT WELLINGTON_LON WELLINGTON_WIND WELLINGTON_PRES DS824_LAT DS824_LON DS824_STAGE DS824_WIND DS824_PRES TD9636_LAT TD9636_LON TD9636_STAGE TD9636_WIND TD9636_PRES TD9635_LAT TD9635_LON TD9635_WIND TD9635_PRES TD9635_ROCI NEUMANN_LAT NEUMANN_LON NEUMANN_CLASS NEUMANN_WIND NEUMANN_PRES MLC_LAT MLC_LON MLC_CLASS MLC_WIND MLC_PRES USA_GUST BOM_GUST BOM_GUST_PER REUNION_GUST REUNION_GUST_PER USA_SEAHGT USA_SEARAD_NE USA_SEARAD_SE USA_SEARAD_SW USA_SEARAD_NW STORM_SPEED STORM_DIR
1894070S12068 1894 12 SI MM NOT_NAMED 1894-03-11 06:00:00 NR -12.4000 67.6000 reunion spur-split 1363 1354 _____O________ -1 -12.4000 67.6000 99 9.90000 1 232
1894070S12068 1894 12 SI MM NOT_NAMED 1894-03-11 09:00:00 NR -12.4419 67.5433 spur-split 1354 1347 _____P________ -1 -12.4419 67.5433 99 1 233
1894070S12068 1894 12 SI MM NOT_NAMED 1894-03-11 12:00:00 NR -12.4857 67.4825 spur-split 1347 1339 _____P________ -1 -12.4857 67.4825 99 2 233
1894070S12068 1894 12 SI MM NOT_NAMED 1894-03-11 15:00:00 NR -12.5335 67.4134 spur-split 1339 1323 _____P________ -1 -12.5335 67.4134 99 2 236
1894070S12068 1894 12 SI MM NOT_NAMED 1894-03-11 18:00:00 NR -12.5872 67.3320 spur-split 1323 1315 _____P________ -1 -12.5872 67.3320 99 2 237
1894070S12068 1894 12 SI MM NOT_NAMED 1894-03-11 21:00:00 NR -12.6487 67.2340 spur-split 1315 1299 _____P________ -1 -12.6487 67.2340 99 3 238
1894070S12068 1894 12 SI MM NOT_NAMED 1894-03-12 00:00:00 NR -12.7201 67.1155 spur-split 1299 1284 _____P________ -1 -12.7201 67.1155 99 3 239
1894070S12068 1894 12 SI MM NOT_NAMED 1894-03-12 03:00:00 NR -12.8032 66.9722 spur-split 1284 1260 _____P________ -1 -12.8032 66.9722 99 4 240
1894070S12068 1894 12 SI MM NOT_NAMED 1894-03-12 06:00:00 NR -12.9000 66.8000 reunion spur-split 1260 1237 _____O________ -1 -12.9000 66.8000 99 9.90000 4 240
1894070S12068 1894 12 SI MM NOT_NAMED 1894-03-12 09:00:00 NR -13.0131 66.5943 spur-split 1237 1213 _____P________ -1 -13.0131 66.5943 99 5 241
1894070S12068 1894 12 SI MM NOT_NAMED 1894-03-12 12:00:00 NR -13.1484 66.3484 spur-split 1205 1174 _____P________ -1 -13.1484 66.3484 99 6 240
1894070S12068 1894 12 SI MM NOT_NAMED 1894-03-12 15:00:00 NR -13.3127 66.0548 spur-split 1174 1126 _____P________ -1 -13.3127 66.0548 99 7 240
1894070S12068 1894 12 SI MM NOT_NAMED 1894-03-12 18:00:00 NR -13.5125 65.7060 spur-split 1126 1079 _____P________ -1 -13.5125 65.7060 99 9 239
1894070S12068 1894 12 SI MM NOT_NAMED 1894-03-12 21:00:00 NR -13.7546 65.2943 spur-split 1072 1017 _____P________ -1 -13.7546 65.2943 99 10 238
1894070S12068 1894 12 SI MM NOT_NAMED 1894-03-13 00:00:00 NR -14.0455 64.8117 spur-split 1017 947 _____P________ -1 -14.0455 64.8117 99 12 238
1894070S12068 1894 12 SI MM NOT_NAMED 1894-03-13 03:00:00 NR -14.3918 64.2499 spur-split 939 862 _____P________ -1 -14.3918 64.2499 99 14 237
1894070S12068 1894 12 SI MM NOT_NAMED 1894-03-13 06:00:00 NR -14.8000 63.6000 reunion spur-split 862 761 _____O________ -1 -14.8000 63.6000 99 9.90000 18 237
1894070S12068 1894 12 SI MM NOT_NAMED 1894-03-13 09:00:00 NR -15.3646 62.7216 spur-split 746 631 _____P________ -1 -15.3646 62.7216 99 22 236
1894070S12068 1894 12 SI MM NOT_NAMED 1894-03-13 12:00:00 NR -16.0027 61.7275 spur-split 623 503 _____P________ -1 -16.0027 61.7275 99 24 236
1894070S12068 1894 12 SI MM NOT_NAMED 1894-03-13 15:00:00 NR -16.6838 60.6599 spur-split 494 371 _____P________ -1 -16.6838 60.6599 99 25 236
1894070S12068 1894 12 SI MM NOT_NAMED 1894-03-13 18:00:00 NR -17.3773 59.5625 spur-split 362 249 _____P________ -1 -17.3773 59.5625 99 25 237
1894070S12068 1894 12 SI MM NOT_NAMED 1894-03-13 21:00:00 NR -18.0538 58.4807 spur-split 239 156 _____P________ -1 -18.0538 58.4807 99 24 237
1894070S12068 1894 12 SI MM NOT_NAMED 1894-03-14 00:00:00 NR -18.6845 57.4611 spur-split 156 130 _____P________ -1 -18.6845 57.4611 99 22 237
1894070S12068 1894 12 SI MM NOT_NAMED 1894-03-14 03:00:00 NR -19.2419 56.5515 spur-split 137 137 _____P________ -1 -19.2419 56.5515 99 19 237
1894070S12068 1894 12 SI MM NOT_NAMED 1894-03-14 06:00:00 NR -19.7000 55.8000 reunion spur-split 145 111 _____O________ -1 -19.7000 55.8000 99 9.90000 15 237
1894070S12068 1894 12 SI MM NOT_NAMED 1894-03-14 09:00:00 NR -20.0404 55.2429 spur-split 112 88 _____P________ -1 -20.0404 55.2429 99 10 237
1894070S12068 1894 12 SI MM NOT_NAMED 1894-03-14 12:00:00 NR -20.2735 54.8679 spur-split 88 88 _____P________ -1 -20.2735 54.8679 99 7 236
1894070S12068 1894 12 SI MM NOT_NAMED 1894-03-14 15:00:00 NR -20.4156 54.6495 spur-split 99 91 _____P________ -1 -20.4156 54.6495 99 4 234
1894070S12068 1894 12 SI MM NOT_NAMED 1894-03-14 18:00:00 NR -20.4825 54.5621 spur-split 91 91 _____P________ -1 -20.4825 54.5621 99 1 220
1894070S12068 1894 12 SI MM NOT_NAMED 1894-03-14 21:00:00 NR -20.4895 54.5797 spur-split 91 83 _____P________ -1 -20.4895 54.5797 99 1 74
1894070S12068 1894 12 SI MM NOT_NAMED 1894-03-15 00:00:00 NR -20.4515 54.6760 spur-split 83 83 _____P________ -1 -20.4515 54.6760 99 3 65
1894070S12068 1894 12 SI MM NOT_NAMED 1894-03-15 03:00:00 NR -20.3834 54.8249 spur-split 84 78 _____P________ -1 -20.3834 54.8249 99 3 64
1894070S12068 1894 12 SI MM NOT_NAMED 1894-03-15 06:00:00 NR -20.3000 55.0000 reunion spur-split 84 _____O________ -1 -20.3000 55.0000 99 9.90000 4 63

IBTrACS Databaseについて

本データベースは、米国NOAAが公開する1842年以降の世界の熱帯低気圧のベストトラックデータアーカイブInternational Best Track Archive for Climate Stewardship (IBTrACS)を、ウェブで閲覧しやすい形式に変換したものです。

最終更新日:2021-12-03